Time;durP1;ratioP1;P1;durP2;ratioP2;P2;SDS_P1;SDS_P2;PMS_P1;PMS_P2;Temp;Humidity;BMP_temperature;BMP_pressure;BME280_temperature;BME280_humidity;BME280_pressure;Samples;Min_cycle;Max_cycle;Signal;HPM_P1;HPM_P2
2022/08/13 00:00:18;;;;;;;7.13;6.43;;;;;;;21.70;58.69;94642.91;5097186;28;20192;-70
2022/08/13 00:02:51;;;;;;;7.20;6.60;;;;;;;21.68;58.36;94639.72;5097884;28;20208;-70
2022/08/13 00:05:18;;;;;;;7.00;6.40;;;;;;;21.67;58.84;94633.34;5063727;28;20204;-70
2022/08/13 00:07:47;;;;;;;6.93;6.35;;;;;;;21.60;58.81;94636.31;5097711;28;20188;-70
2022/08/13 00:10:21;;;;;;;7.35;6.60;;;;;;;21.57;58.97;94631.59;5096511;28;20659;-70
2022/08/13 00:13:03;;;;;;;6.78;6.13;;;;;;;21.57;59.15;94637.19;5097004;28;20214;-70
2022/08/13 00:15:37;;;;;;;6.90;6.30;;;;;;;21.55;59.15;94629.19;5096873;28;20202;-70
2022/08/13 00:18:12;;;;;;;6.50;5.90;;;;;;;21.54;59.45;94629.63;5097638;28;20184;-70
2022/08/13 00:20:44;;;;;;;6.85;6.22;;;;;;;21.53;59.53;94626.06;5097988;28;20181;-70
2022/08/13 00:23:14;;;;;;;6.20;5.70;;;;;;;21.52;59.20;94626.47;5096651;28;20203;-70
2022/08/13 00:25:42;;;;;;;6.28;5.78;;;;;;;21.55;59.22;94623.59;5097322;28;20192;-70
2022/08/13 00:28:10;;;;;;;6.60;6.00;;;;;;;21.57;59.08;94626.75;5097651;28;20204;-70
2022/08/13 00:30:39;;;;;;;6.38;5.80;;;;;;;21.59;58.92;94627.09;5096681;28;20212;-70
2022/08/13 00:33:12;;;;;;;6.70;6.20;;;;;;;21.59;59.09;94615.88;5096408;28;20203;-70
2022/08/13 00:35:41;;;;;;;6.70;6.20;;;;;;;21.58;59.40;94613.50;5096905;28;20212;-71
2022/08/13 00:38:11;;;;;;;6.07;5.57;;;;;;;21.58;59.23;94617.09;5096543;28;20197;-71
2022/08/13 00:40:42;;;;;;;6.05;5.55;;;;;;;21.58;58.91;94617.09;5096233;28;20192;-71
2022/08/13 00:43:09;;;;;;;6.50;6.00;;;;;;;21.57;59.58;94617.56;5096952;28;20244;-71
2022/08/13 00:45:46;;;;;;;6.38;5.78;;;;;;;21.54;59.86;94613.59;5096982;28;20253;-70
2022/08/13 00:51:05;;;;;;;6.28;5.72;;;;;;;21.51;59.90;94620.06;5095643;28;20326;-70
2022/08/13 00:53:34;;;;;;;6.70;6.07;;;;;;;21.48;59.54;94618.13;5096631;28;20638;-70
2022/08/13 00:56:03;;;;;;;6.35;5.85;;;;;;;21.48;59.44;94615.31;5096040;28;20246;-71
2022/08/13 00:58:34;;;;;;;7.00;6.30;;;;;;;21.48;59.50;94611.72;5096667;28;20204;-70
2022/08/13 01:01:08;;;;;;;7.13;6.43;;;;;;;21.50;59.38;94606.50;5096697;28;20201;-71
2022/08/13 01:03:38;;;;;;;6.82;6.10;;;;;;;21.50;59.12;94614.91;5096013;28;20189;-71
2022/08/13 01:06:07;;;;;;;6.55;6.00;;;;;;;21.47;59.22;94613.75;5096856;28;20212;-70
2022/08/13 01:08:40;;;;;;;7.35;6.75;;;;;;;21.44;59.62;94608.22;5096215;28;20204;-70
2022/08/13 01:11:11;;;;;;;6.68;6.07;;;;;;;21.41;60.07;94603.47;5095514;28;20307;-71
2022/08/13 01:13:42;;;;;;;7.13;6.40;;;;;;;21.39;60.66;94601.13;5095550;28;20207;-72
2022/08/13 01:16:13;;;;;;;6.95;6.25;;;;;;;21.38;60.59;94605.13;5096712;28;20285;-70
2022/08/13 01:18:47;;;;;;;6.65;6.15;;;;;;;21.36;60.43;94599.16;5095916;28;20196;-71
2022/08/13 01:21:20;;;;;;;6.90;5.88;;;;;;;21.32;60.38;94607.63;5096148;28;20250;-71
2022/08/13 01:23:51;;;;;;;7.05;6.45;;;;;;;21.29;60.08;94607.72;5095168;28;20242;-71
2022/08/13 01:26:21;;;;;;;6.65;6.05;;;;;;;21.28;59.51;94606.94;5095386;28;20196;-70
2022/08/13 01:28:51;;;;;;;6.50;5.90;;;;;;;21.28;59.86;94608.91;5096442;28;20215;-70
2022/08/13 01:31:21;;;;;;;6.95;6.30;;;;;;;21.28;59.57;94612.53;5095512;28;20220;-70
2022/08/13 01:33:59;;;;;;;7.03;6.32;;;;;;;21.29;59.42;94608.50;5096205;28;20238;-70
2022/08/13 01:36:28;;;;;;;6.40;5.95;;;;;;;21.30;59.30;94606.47;5096154;28;20211;-70
2022/08/13 01:39:01;;;;;;;7.15;6.45;;;;;;;21.29;59.13;94600.09;5096241;28;20195;-70
2022/08/13 01:41:30;;;;;;;6.57;6.07;;;;;;;21.29;59.99;94600.09;5095564;28;20192;-70
2022/08/13 01:44:04;;;;;;;7.32;6.63;;;;;;;21.28;59.95;94600.50;5095736;28;20177;-70
2022/08/13 01:50:28;;;;;;;6.95;6.45;;;;;;;21.27;59.84;94596.13;5094687;28;20218;-70
2022/08/13 01:52:12;;;;;;;9.20;6.10;;;;;;;21.26;59.59;94595.34;5094876;28;20220;-70
2022/08/13 01:54:44;;;;;;;6.90;6.30;;;;;;;21.29;59.37;94600.09;5094874;28;20196;-70
2022/08/13 01:57:14;;;;;;;7.10;6.50;;;;;;;21.28;59.67;94589.28;5096003;28;20192;-70
2022/08/13 01:59:42;;;;;;;6.70;6.20;;;;;;;21.27;59.96;94587.72;5094723;28;20208;-70
2022/08/13 02:02:11;;;;;;;7.32;6.72;;;;;;;21.27;60.28;94582.09;5095623;28;20181;-70
2022/08/13 02:04:44;;;;;;;7.20;6.60;;;;;;;21.27;60.26;94585.69;5094696;28;20604;-70
2022/08/13 02:07:14;;;;;;;7.15;6.65;;;;;;;21.28;60.08;94584.50;5095506;28;20199;-70
2022/08/13 02:09:46;;;;;;;7.10;6.50;;;;;;;21.27;60.45;94582.09;5095517;28;20208;-70
2022/08/13 02:12:15;;;;;;;7.38;6.53;;;;;;;21.26;60.66;94577.72;5094987;28;20217;-70
2022/08/13 02:14:43;;;;;;;7.38;6.60;;;;;;;21.24;60.56;94574.56;5094521;28;20196;-71
2022/08/13 02:17:27;;;;;;;6.63;5.97;;;;;;;21.23;60.65;94576.56;5094779;28;20185;-71
2022/08/13 02:19:56;;;;;;;6.47;5.97;;;;;;;21.22;60.88;94582.63;5094553;28;20625;-70
2022/08/13 02:22:26;;;;;;;6.45;5.95;;;;;;;21.20;61.05;94580.22;5095595;28;20245;-70
2022/08/13 02:24:57;;;;;;;6.70;6.20;;;;;;;21.20;60.87;94579.44;5095234;28;20192;-70
2022/08/13 02:27:26;;;;;;;6.43;5.85;;;;;;;21.21;60.57;94581.03;5095345;28;20200;-70
2022/08/13 02:29:59;;;;;;;6.53;5.93;;;;;;;21.18;60.69;94585.50;5094282;28;20199;-70
2022/08/13 02:32:27;;;;;;;6.25;5.68;;;;;;;21.16;60.37;94587.94;5094632;28;20209;-70
2022/08/13 02:34:57;;;;;;;6.28;5.72;;;;;;;21.15;60.92;94597.56;5094292;28;20203;-71
2022/08/13 02:37:28;;;;;;;6.22;5.72;;;;;;;21.14;60.45;94596.00;5094455;28;20285;-71
2022/08/13 02:39:58;;;;;;;5.95;5.35;;;;;;;21.13;59.42;94597.22;5094037;28;20226;-71
2022/08/13 02:42:31;;;;;;;5.63;5.05;;;;;;;21.14;59.23;94593.19;5093937;28;20302;-71
2022/08/13 02:45:00;;;;;;;6.95;6.35;;;;;;;21.12;59.67;94592.84;5094913;28;20207;-71
2022/08/13 02:47:32;;;;;;;6.13;5.63;;;;;;;21.11;59.31;94592.03;5094969;28;20200;-70
2022/08/13 02:50:02;;;;;;;5.80;5.32;;;;;;;21.11;59.79;94585.66;5095197;28;20185;-70
2022/08/13 02:52:30;;;;;;;6.25;5.75;;;;;;;21.11;59.44;94582.84;5094121;28;20731;-70
2022/08/13 02:55:00;;;;;;;6.10;5.60;;;;;;;21.09;59.80;94583.25;5094251;28;20192;-70
2022/08/13 02:57:29;;;;;;;5.75;5.13;;;;;;;21.09;59.91;94588.88;5094202;28;20266;-70
2022/08/13 03:00:00;;;;;;;6.10;5.60;;;;;;;21.08;59.55;94584.50;5093868;28;20693;-70
2022/08/13 03:02:31;;;;;;;6.28;5.72;;;;;;;21.09;59.50;94588.88;5095099;28;20188;-70
2022/08/13 03:05:03;;;;;;;5.68;5.18;;;;;;;21.08;59.81;94584.50;5094485;28;20311;-70
2022/08/13 03:07:31;;;;;;;5.65;5.15;;;;;;;21.09;59.84;94582.47;5095022;28;20223;-70
2022/08/13 03:10:03;;;;;;;6.63;5.60;;;;;;;21.06;60.32;94597.34;5094611;28;20204;-71
2022/08/13 03:12:32;;;;;;;6.20;5.70;;;;;;;21.04;60.16;94585.81;5093824;28;20224;-71
2022/08/13 03:15:00;;;;;;;6.18;5.60;;;;;;;21.03;60.40;94587.03;5094079;28;20189;-71
2022/08/13 03:17:28;;;;;;;6.18;5.68;;;;;;;20.99;60.75;94598.31;5093613;28;20189;-71
2022/08/13 03:19:56;;;;;;;6.50;6.00;;;;;;;20.97;61.12;94589.53;5098525;28;20191;-71
2022/08/13 03:22:24;;;;;;;6.10;5.60;;;;;;;20.97;61.01;94597.16;5097874;28;20203;-71
2022/08/13 03:24:51;;;;;;;7.07;6.38;;;;;;;20.94;60.78;94593.19;5098217;28;20612;-71
2022/08/13 03:27:20;;;;;;;6.38;5.78;;;;;;;20.93;60.09;94594.44;5097533;28;20600;-71
2022/08/13 03:29:53;;;;;;;6.93;6.35;;;;;;;20.94;60.18;94598.03;5097514;28;20208;-70
2022/08/13 03:32:21;;;;;;;7.07;6.47;;;;;;;20.91;59.94;94608.88;5097502;28;20246;-70
2022/08/13 03:34:51;;;;;;;6.53;5.85;;;;;;;20.89;60.41;94604.94;5097858;28;20253;-71
2022/08/13 03:37:19;;;;;;;6.38;5.88;;;;;;;20.87;59.97;94596.94;5098179;28;20230;-71
2022/08/13 03:39:47;;;;;;;6.47;5.97;;;;;;;20.87;60.31;94601.75;5098064;28;20188;-71
2022/08/13 03:42:15;;;;;;;6.22;5.72;;;;;;;20.85;60.79;94604.22;5097044;28;20251;-70
2022/08/13 03:44:45;;;;;;;6.95;6.13;;;;;;;20.84;60.85;94602.59;5097565;28;20202;-71
2022/08/13 03:47:14;;;;;;;6.53;6.03;;;;;;;20.83;61.27;94601.81;5097465;28;20210;-70
2022/08/13 03:49:46;;;;;;;6.40;5.80;;;;;;;20.82;60.60;94602.25;5098059;28;20195;-70
2022/08/13 03:52:16;;;;;;;6.43;5.93;;;;;;;20.79;59.94;94605.94;5098147;28;20314;-70
2022/08/13 03:54:44;;;;;;;7.22;6.32;;;;;;;20.79;60.17;94597.50;5097568;28;20207;-70
2022/08/13 03:57:12;;;;;;;6.50;6.00;;;;;;;20.78;60.00;94601.53;5096826;28;20216;-70
2022/08/13 03:59:40;;;;;;;5.97;5.47;;;;;;;20.78;60.49;94601.53;5097006;28;20197;-70
2022/08/13 04:02:12;;;;;;;6.07;5.50;;;;;;;20.80;60.34;94605.47;5096949;28;20604;-70
2022/08/13 04:04:46;;;;;;;6.03;5.57;;;;;;;20.78;59.68;94610.75;5097004;28;20200;-70
2022/08/13 04:07:15;;;;;;;6.28;5.70;;;;;;;20.77;59.73;94611.16;5097128;28;20286;-70
2022/08/13 04:09:42;;;;;;;6.70;5.90;;;;;;;20.79;59.72;94603.13;5096811;28;20604;-70
2022/08/13 04:12:12;;;;;;;5.80;5.30;;;;;;;20.79;60.05;94609.50;5096616;28;20255;-70
2022/08/13 04:14:40;;;;;;;7.05;6.35;;;;;;;20.79;60.31;94608.72;5096957;28;20239;-70
2022/08/13 04:17:15;;;;;;;6.32;5.82;;;;;;;20.76;60.58;94606.78;5097410;28;20188;-70
2022/08/13 04:19:46;;;;;;;6.07;5.60;;;;;;;20.72;60.75;94606.06;5096271;28;20196;-70
2022/08/13 04:22:14;;;;;;;7.13;6.43;;;;;;;20.72;60.92;94612.44;5097425;28;20189;-70
2022/08/13 04:24:44;;;;;;;6.03;5.53;;;;;;;20.72;61.03;94612.44;5096612;28;20196;-70
2022/08/13 04:27:12;;;;;;;6.72;6.22;;;;;;;20.73;61.18;94607.63;5096655;28;20257;-69
2022/08/13 04:29:40;;;;;;;6.55;5.93;;;;;;;20.71;61.26;94608.06;5095078;28;20196;-70
2022/08/13 04:32:14;;;;;;;6.63;6.00;;;;;;;20.71;60.97;94602.47;5097029;28;20643;-70
2022/08/13 04:34:41;;;;;;;6.65;6.05;;;;;;;20.71;61.23;94610.09;5097065;28;20181;-70
2022/08/13 04:37:11;;;;;;;6.50;6.00;;;;;;;20.74;61.02;94606.44;5096492;28;20197;-70
2022/08/13 04:39:39;;;;;;;6.35;5.85;;;;;;;20.72;61.44;94598.44;5096338;28;20196;-70
2022/08/13 04:42:08;;;;;;;6.60;5.97;;;;;;;20.72;61.45;94606.06;5095685;28;20239;-70
2022/08/13 04:44:37;;;;;;;7.70;6.18;;;;;;;20.72;61.66;94600.47;5095952;28;20200;-70
2022/08/13 04:47:06;;;;;;;7.70;6.97;;;;;;;20.73;61.57;94602.81;5097238;28;20195;-69
2022/08/13 04:49:35;;;;;;;6.65;5.97;;;;;;;20.72;61.68;94606.06;5096737;28;20188;-70
2022/08/13 04:52:04;;;;;;;6.93;6.40;;;;;;;20.72;62.04;94608.88;5096871;28;20204;-70
2022/08/13 04:54:32;;;;;;;6.82;6.10;;;;;;;20.70;61.53;94602.88;5096549;28;20207;-70
2022/08/13 04:57:00;;;;;;;7.97;6.70;;;;;;;20.70;61.55;94602.88;5095937;28;20593;-70
2022/08/13 04:59:29;;;;;;;7.22;6.38;;;;;;;20.71;61.56;94605.28;5096773;28;20199;-70
2022/08/13 05:01:57;;;;;;;7.05;6.35;;;;;;;20.73;61.74;94607.63;5095857;28;20184;-70
2022/08/13 05:04:26;;;;;;;7.32;6.68;;;;;;;20.73;61.66;94610.44;5096667;28;20207;-70
2022/08/13 05:06:56;;;;;;;7.05;6.45;;;;;;;20.72;61.41;94606.06;5096027;28;20192;-70
2022/08/13 05:09:24;;;;;;;6.90;6.32;;;;;;;20.72;61.79;94609.66;5095817;28;20197;-70
2022/08/13 05:11:51;;;;;;;7.07;6.38;;;;;;;20.73;61.90;94604.84;5095490;28;20192;-70
2022/08/13 05:14:22;;;;;;;6.80;6.20;;;;;;;20.74;61.89;94606.44;5096459;28;20176;-70
2022/08/13 05:16:50;;;;;;;6.97;6.40;;;;;;;20.73;61.57;94605.63;5095791;28;20596;-70
2022/08/13 05:19:22;;;;;;;7.15;6.13;;;;;;;20.75;61.66;94610.81;5095184;28;20212;-70
2022/08/13 05:21:49;;;;;;;7.20;6.60;;;;;;;20.74;61.15;94612.03;5095214;28;20207;-70
2022/08/13 05:24:20;;;;;;;6.68;6.18;;;;;;;20.73;61.52;94611.22;5096404;28;20195;-71
2022/08/13 05:26:52;;;;;;;7.38;6.70;;;;;;;20.73;61.32;94605.63;5096489;28;20188;-70
2022/08/13 05:29:20;;;;;;;7.70;7.07;;;;;;;20.77;61.75;94611.16;5095548;28;20211;-70
2022/08/13 05:31:51;;;;;;;8.50;7.15;;;;;;;20.79;61.27;94609.50;5095149;28;20204;-69
2022/08/13 05:34:17;;;;;;;7.00;6.40;;;;;;;20.78;61.23;94609.97;5096365;28;20249;-69
2022/08/13 05:36:46;;;;;;;7.07;6.47;;;;;;;20.78;61.35;94605.13;5095281;28;20196;-69
2022/08/13 05:39:17;;;;;;;7.07;6.43;;;;;;;20.83;61.38;94612.25;5094102;28;20204;-69
2022/08/13 05:41:52;;;;;;;6.55;5.95;;;;;;;20.84;61.08;94608.22;5094628;28;20246;-68
2022/08/13 05:44:22;;;;;;;6.90;6.28;;;;;;;20.85;61.19;94613.41;5094848;28;20208;-68
2022/08/13 05:46:49;;;;;;;7.25;6.65;;;;;;;20.85;61.17;94616.22;5094624;28;20211;-69
2022/08/13 05:49:23;;;;;;;7.65;7.05;;;;;;;20.86;61.11;94611.38;5095920;28;20250;-68
2022/08/13 05:51:51;;;;;;;7.95;7.25;;;;;;;20.87;61.35;94615.75;5094794;28;20204;-69
2022/08/13 05:54:19;;;;;;;7.88;7.10;;;;;;;20.87;61.94;94608.13;5095427;28;20208;-69
2022/08/13 05:56:49;;;;;;;7.40;6.80;;;;;;;20.90;62.00;94615.69;5095941;28;20200;-69
2022/08/13 06:04:47;;;;;;;7.15;6.55;;;;;;;20.96;61.88;94612.41;5094591;28;20207;-69
2022/08/13 06:07:18;;;;;;;7.45;6.75;;;;;;;20.96;61.89;94616.00;5095621;28;20181;-69
2022/08/13 06:09:49;;;;;;;6.88;6.28;;;;;;;20.98;61.29;94607.94;5094624;28;20192;-69
2022/08/13 06:12:19;;;;;;;6.88;6.28;;;;;;;21.01;61.55;94609.88;5095776;28;20208;-69
2022/08/13 06:14:49;;;;;;;7.35;6.65;;;;;;;21.02;61.44;94605.84;5078085;28;20204;-69
2022/08/13 06:17:18;;;;;;;7.10;6.50;;;;;;;21.02;61.22;94616.28;5095561;28;20207;-69
2022/08/13 06:19:46;;;;;;;7.65;6.93;;;;;;;21.03;61.25;94613.06;5094250;28;20200;-69
2022/08/13 06:22:15;;;;;;;6.90;6.40;;;;;;;21.05;60.69;94607.78;5093455;28;20208;-69
2022/08/13 06:24:47;;;;;;;6.68;6.18;;;;;;;21.05;60.91;94609.81;5095360;28;20189;-69
2022/08/13 06:27:17;;;;;;;7.70;7.00;;;;;;;21.10;60.45;94612.91;5094199;28;20200;-68
2022/08/13 06:29:50;;;;;;;7.95;7.25;;;;;;;21.15;60.42;94612.38;5095289;28;20228;-69
2022/08/13 06:32:20;;;;;;;7.82;7.13;;;;;;;21.15;60.35;94615.19;5094631;28;22179;-68
2022/08/13 06:34:48;;;;;;;8.02;7.25;;;;;;;21.12;60.53;94615.25;5094473;28;20242;-69
2022/08/13 06:37:17;;;;;;;7.57;6.88;;;;;;;21.10;60.75;94610.09;5095282;28;20199;-68
2022/08/13 06:39:46;;;;;;;8.35;7.18;;;;;;;21.09;61.25;94611.31;5093884;28;20272;-69
2022/08/13 06:42:14;;;;;;;7.57;6.93;;;;;;;21.09;61.37;94614.09;5094900;28;20232;-69
2022/08/13 06:44:44;;;;;;;8.30;7.40;;;;;;;21.12;61.38;94607.63;5095148;28;20200;-69
2022/08/13 06:47:17;;;;;;;7.72;7.05;;;;;;;21.16;61.52;94607.56;5093309;28;20208;-69
2022/08/13 06:49:48;;;;;;;7.22;6.47;;;;;;;21.19;61.52;94614.34;5094206;28;20196;-68
2022/08/13 06:52:16;;;;;;;7.55;6.75;;;;;;;21.20;61.69;94613.09;5095084;28;20195;-69
2022/08/13 06:54:44;;;;;;;6.82;6.22;;;;;;;21.20;61.99;94608.28;5080944;28;20196;-68
2022/08/13 06:57:11;;;;;;;7.40;6.80;;;;;;;21.23;61.49;94607.41;5098181;28;20565;-68
2022/08/13 06:59:39;;;;;;;7.75;6.88;;;;;;;21.26;61.76;94605.75;5098992;28;20180;-69
2022/08/13 07:02:08;;;;;;;7.75;6.97;;;;;;;21.29;62.08;94607.72;5098736;28;20199;-69
2022/08/13 07:04:47;;;;;;;10.05;7.88;;;;;;;21.31;62.01;94608.84;5098488;28;20197;-69
2022/08/13 07:07:17;;;;;;;7.93;7.22;;;;;;;21.34;61.68;94605.19;5098291;28;20196;-69
2022/08/13 07:09:46;;;;;;;7.47;6.78;;;;;;;21.37;61.86;94615.56;5098560;28;20203;-69
2022/08/13 07:12:15;;;;;;;7.55;6.95;;;;;;;21.43;62.03;94612.25;5098804;28;20184;-69
2022/08/13 07:14:44;;;;;;;8.75;7.97;;;;;;;21.48;61.75;94620.16;5098574;28;20523;-69
2022/08/13 07:17:12;;;;;;;7.80;6.95;;;;;;;21.50;61.70;94618.50;5097911;28;20227;-68
2022/08/13 07:19:43;;;;;;;8.82;8.02;;;;;;;21.52;61.57;94615.25;5098731;28;20192;-68
2022/08/13 07:22:11;;;;;;;8.18;7.47;;;;;;;21.56;61.28;94610.34;5098383;28;20620;-68
2022/08/13 07:24:39;;;;;;;9.25;8.35;;;;;;;21.62;60.84;94623.41;5098648;28;20196;-68
2022/08/13 07:27:07;;;;;;;8.70;7.95;;;;;;;21.65;60.88;94618.19;5098637;28;20188;-68
2022/08/13 07:29:35;;;;;;;8.00;7.20;;;;;;;21.68;60.89;94615.28;5097769;28;20211;-68
2022/08/13 07:32:06;;;;;;;7.90;7.10;;;;;;;21.66;60.81;94619.75;5097697;28;20273;-69
2022/08/13 07:34:37;;;;;;;7.97;7.28;;;;;;;21.66;60.59;94625.38;5098661;28;20292;-69
2022/08/13 07:37:07;;;;;;;8.18;7.47;;;;;;;21.63;60.53;94618.59;5097241;28;20595;-69
2022/08/13 07:39:35;;;;;;;8.35;7.63;;;;;;;21.62;60.41;94623.41;5096671;28;20209;-68
2022/08/13 07:42:05;;;;;;;8.52;7.82;;;;;;;21.61;60.71;94615.44;5096599;28;20240;-69
2022/08/13 07:44:33;;;;;;;7.97;7.07;;;;;;;21.61;60.65;94616.25;5097549;28;20219;-68
2022/08/13 07:47:07;;;;;;;8.20;7.47;;;;;;;21.66;60.61;94611.34;5098346;28;20188;-69
2022/08/13 07:49:37;;;;;;;7.68;7.00;;;;;;;21.70;60.75;94615.63;5081445;28;20195;-69
2022/08/13 07:52:10;;;;;;;8.10;7.40;;;;;;;21.72;60.39;94612.41;5098096;28;20188;-69
2022/08/13 07:54:40;;;;;;;7.88;7.10;;;;;;;21.71;60.10;94614.41;5097658;28;20663;-69
2022/08/13 07:57:10;;;;;;;8.40;7.65;;;;;;;21.75;60.19;94609.50;5098324;28;20173;-69
2022/08/13 07:59:37;;;;;;;8.13;7.47;;;;;;;21.76;60.12;94608.28;5097584;28;20563;-69
2022/08/13 08:02:06;;;;;;;7.93;7.30;;;;;;;21.81;60.03;94609.78;5096705;28;20228;-69
2022/08/13 08:04:37;;;;;;;8.85;8.05;;;;;;;21.85;60.57;94604.84;5097155;28;20254;-69
2022/08/13 08:07:09;;;;;;;8.30;7.57;;;;;;;21.88;60.24;94603.97;5097246;28;20196;-69
2022/08/13 08:09:36;;;;;;;9.15;8.45;;;;;;;21.91;60.09;94603.13;5097734;28;20291;-69
2022/08/13 08:14:52;;;;;;;10.00;7.95;;;;;;;21.95;60.50;94605.84;5097475;28;20277;-69
2022/08/13 08:17:26;;;;;;;8.77;7.88;;;;;;;21.95;60.57;94606.63;5096571;28;20200;-70
2022/08/13 08:19:56;;;;;;;9.82;8.82;;;;;;;21.95;60.41;94605.84;5096746;28;20199;-69
2022/08/13 08:22:27;;;;;;;8.93;8.10;;;;;;;21.96;60.24;94604.59;5097108;28;20733;-69
2022/08/13 08:24:59;;;;;;;9.40;7.95;;;;;;;21.92;60.00;94609.50;5097674;28;20180;-69
2022/08/13 08:27:32;;;;;;;8.98;8.25;;;;;;;21.89;60.00;94605.56;5096631;28;20243;-69
2022/08/13 08:30:01;;;;;;;7.90;7.25;;;;;;;21.88;59.66;94609.59;5097087;28;20495;-69
2022/08/13 08:32:31;;;;;;;7.55;6.88;;;;;;;21.87;59.92;94616.44;5096153;28;20204;-69
2022/08/13 08:34:58;;;;;;;8.27;7.57;;;;;;;21.88;59.95;94606.78;5096555;28;20223;-69
2022/08/13 08:43:10;;;;;;;9.38;7.47;;;;;;;21.92;59.85;94603.91;5097029;28;20239;-69
2022/08/13 08:45:39;;;;;;;8.02;7.22;;;;;;;21.92;60.10;94601.88;5097208;28;20176;-69
2022/08/13 08:48:09;;;;;;;7.68;6.90;;;;;;;21.94;60.37;94601.47;5097263;28;20199;-70
2022/08/13 08:50:38;;;;;;;8.70;7.82;;;;;;;21.95;60.56;94605.84;5096475;28;20197;-69
2022/08/13 08:53:23;;;;;;;8.85;7.32;;;;;;;21.96;60.49;94596.97;5096876;28;20204;-69
2022/08/13 08:55:53;;;;;;;8.98;8.18;;;;;;;21.99;60.29;94598.13;5096426;28;20185;-69
2022/08/13 08:58:21;;;;;;;7.72;6.82;;;;;;;21.95;60.42;94603.03;5095927;28;20214;-69
2022/08/13 09:00:50;;;;;;;7.15;6.55;;;;;;;21.94;59.86;94605.06;5097077;28;20189;-69
2022/08/13 09:03:23;;;;;;;7.60;6.90;;;;;;;21.94;60.13;94598.66;5097443;28;20597;-69
2022/08/13 09:05:51;;;;;;;7.97;7.38;;;;;;;21.93;60.27;94591.44;5095930;28;20203;-69
2022/08/13 09:08:20;;;;;;;7.45;6.82;;;;;;;21.90;60.21;94595.94;5096821;28;20207;-69
2022/08/13 09:10:49;;;;;;;7.03;6.45;;;;;;;21.90;60.46;94595.94;5096580;28;20192;-69
2022/08/13 09:13:19;;;;;;;7.82;7.13;;;;;;;21.88;60.39;94598.38;5096548;28;20294;-69
2022/08/13 09:15:48;;;;;;;7.28;6.68;;;;;;;21.86;60.47;94593.22;5095801;28;20631;-69
2022/08/13 09:18:18;;;;;;;7.20;6.50;;;;;;;21.86;60.44;94595.22;5096473;28;20211;-70
2022/08/13 09:20:47;;;;;;;8.05;7.35;;;;;;;21.84;60.50;94595.66;5096450;28;20199;-69
2022/08/13 09:23:16;;;;;;;7.38;6.68;;;;;;;21.85;61.30;94597.22;5096546;28;20185;-69
2022/08/13 09:25:50;;;;;;;8.65;7.70;;;;;;;21.84;60.96;94597.66;5095957;28;20643;-69
2022/08/13 09:28:23;;;;;;;8.13;7.32;;;;;;;21.84;61.03;94597.66;5095889;28;20223;-70
2022/08/13 09:30:52;;;;;;;8.60;7.22;;;;;;;21.82;61.08;94598.13;5095936;28;20188;-69
2022/08/13 09:33:23;;;;;;;7.38;6.78;;;;;;;21.84;61.46;94600.47;5095847;28;20685;-69
2022/08/13 09:35:52;;;;;;;7.30;6.70;;;;;;;21.84;62.09;94597.66;5095371;28;20204;-69
2022/08/13 09:38:21;;;;;;;8.50;7.80;;;;;;;21.83;61.77;94596.09;5094420;28;20223;-69
2022/08/13 09:40:56;;;;;;;10.68;7.90;;;;;;;21.79;62.35;94593.38;5094998;28;20287;-69
2022/08/13 09:43:31;;;;;;;7.97;7.28;;;;;;;21.77;63.06;94592.22;5095861;28;20270;-70
2022/08/13 09:45:59;;;;;;;7.95;7.25;;;;;;;21.74;63.33;94585.47;5095778;28;20188;-72
2022/08/13 09:48:29;;;;;;;9.63;8.57;;;;;;;21.71;64.20;94586.31;5095635;28;20186;-70
2022/08/13 09:50:57;;;;;;;8.93;8.07;;;;;;;21.67;65.07;94590.44;5095878;28;20340;-70
2022/08/13 09:53:25;;;;;;;8.70;7.97;;;;;;;21.61;65.90;94588.19;5096077;28;20204;-70
2022/08/13 09:55:55;;;;;;;9.23;8.30;;;;;;;21.56;66.70;94588.69;5095654;28;20203;-70
2022/08/13 09:58:24;;;;;;;9.70;8.90;;;;;;;21.51;67.69;94586.41;5094999;28;20192;-70
2022/08/13 10:00:55;;;;;;;9.77;8.88;;;;;;;21.46;68.25;94586.13;5095451;28;20196;-70
2022/08/13 10:03:25;;;;;;;8.95;8.18;;;;;;;21.38;67.41;94586.28;5095039;28;20204;-70
2022/08/13 10:05:54;;;;;;;8.70;8.00;;;;;;;21.34;67.64;94582.75;5094727;28;20193;-71
2022/08/13 10:08:24;;;;;;;9.45;8.48;;;;;;;21.32;67.62;94592.81;5095698;28;20193;-70
2022/08/13 10:10:53;;;;;;;10.35;9.35;;;;;;;21.32;69.39;94584.41;5095741;28;20189;-70
2022/08/13 10:13:22;;;;;;;9.70;8.90;;;;;;;21.29;70.10;94588.88;5095512;28;20177;-70
2022/08/13 10:15:50;;;;;;;9.30;8.60;;;;;;;21.27;70.88;94582.09;5094594;28;20197;-70
2022/08/13 10:18:20;;;;;;;10.80;9.80;;;;;;;21.24;70.64;94591.38;5095482;28;20200;-70
2022/08/13 10:20:48;;;;;;;10.75;9.75;;;;;;;21.24;71.32;94588.56;5094629;28;20196;-70
2022/08/13 10:23:20;;;;;;;10.30;9.50;;;;;;;21.20;71.53;94579.44;5094638;28;20200;-70
2022/08/13 10:25:52;;;;;;;11.10;10.10;;;;;;;21.19;72.59;94573.06;5095123;28;20199;-70
2022/08/13 10:28:27;;;;;;;9.98;9.18;;;;;;;21.14;71.06;94582.78;5094563;28;20195;-70
2022/08/13 10:30:57;;;;;;;10.18;9.18;;;;;;;21.10;71.41;94584.88;5095122;28;20245;-70
2022/08/13 10:33:27;;;;;;;10.38;9.48;;;;;;;21.03;73.21;94573.81;5094450;28;20250;-70
2022/08/13 10:35:58;;;;;;;11.32;10.30;;;;;;;20.97;74.29;94578.31;5094396;28;20200;-70
2022/08/13 10:38:29;;;;;;;11.32;10.27;;;;;;;20.94;75.02;94573.56;5094477;28;20200;-70
2022/08/13 10:40:57;;;;;;;10.88;9.88;;;;;;;20.92;75.77;94578.84;5095299;28;20259;-71
2022/08/13 10:43:31;;;;;;;11.88;10.70;;;;;;;20.92;75.67;94581.66;5094338;28;20235;-70
2022/08/13 10:46:00;;;;;;;10.75;9.85;;;;;;;20.94;75.06;94572.78;5094476;28;20277;-70
2022/08/13 10:48:29;;;;;;;11.70;10.60;;;;;;;20.99;74.50;94575.06;5094907;28;20208;-69
2022/08/13 10:50:56;;;;;;;12.32;11.13;;;;;;;21.01;74.89;94583.84;5094390;28;20200;-70
2022/08/13 10:56:12;;;;;;;13.00;11.80;;;;;;;20.98;75.26;94588.31;5094605;28;20196;-70
2022/08/13 10:58:42;;;;;;;12.40;11.27;;;;;;;20.96;75.14;94590.78;5093998;28;20620;-70
2022/08/13 11:01:11;;;;;;;11.45;10.45;;;;;;;20.98;74.90;94581.91;5095199;28;20206;-70
2022/08/13 11:03:44;;;;;;;12.15;11.05;;;;;;;20.96;75.30;94587.19;5093756;28;20192;-69
2022/08/13 11:06:14;;;;;;;12.52;11.35;;;;;;;20.92;75.56;94579.63;5094134;28;20196;-69
2022/08/13 11:08:42;;;;;;;14.00;12.73;;;;;;;20.90;76.62;94584.06;5095049;28;20189;-70
2022/08/13 11:11:10;;;;;;;12.20;11.07;;;;;;;20.85;76.36;94588.19;5095078;28;20275;-70
2022/08/13 11:13:43;;;;;;;11.88;10.75;;;;;;;20.83;76.96;94573.00;5094087;28;20224;-70
2022/08/13 11:18:57;;;;;;;11.38;10.27;;;;;;;20.81;75.84;94581.84;5094788;28;20509;-69
2022/08/13 11:21:28;;;;;;;12.05;10.85;;;;;;;20.78;76.19;94582.72;5094077;28;20189;-70
2022/08/13 11:23:56;;;;;;;10.68;9.77;;;;;;;20.73;76.01;94572.00;5094844;28;20188;-70
2022/08/13 11:26:27;;;;;;;10.68;9.65;;;;;;;20.72;75.84;94573.22;5094561;28;20212;-70
2022/08/13 11:28:59;;;;;;;9.68;8.82;;;;;;;20.67;76.01;94568.91;5094868;28;20231;-69
2022/08/13 11:31:27;;;;;;;10.32;9.32;;;;;;;20.59;77.14;94569.50;5094097;28;20200;-70
2022/08/13 11:33:57;;;;;;;11.60;10.60;;;;;;;20.51;78.57;94574.41;5094557;28;20200;-70
2022/08/13 11:36:26;;;;;;;11.38;10.38;;;;;;;20.50;79.22;94574.84;5093719;28;20689;-70
2022/08/13 11:38:54;;;;;;;11.75;10.65;;;;;;;20.55;79.15;94572.38;5094316;28;20208;-70
2022/08/13 11:41:25;;;;;;;12.32;11.15;;;;;;;20.57;79.65;94571.94;5097793;28;20197;-70
2022/08/13 11:43:57;;;;;;;12.50;11.20;;;;;;;20.56;79.86;94587.94;5057353;28;20190;-70
2022/08/13 11:46:27;;;;;;;11.57;10.57;;;;;;;20.59;78.96;94587.09;5056739;28;20653;-69
2022/08/13 11:48:58;;;;;;;11.90;10.90;;;;;;;20.63;78.99;94567.41;5056773;28;20193;-70
2022/08/13 11:51:26;;;;;;;12.65;10.50;;;;;;;20.64;78.52;94577.38;5057780;28;20245;-72
2022/08/13 11:53:54;;;;;;;10.50;9.60;;;;;;;20.66;78.31;94580.53;5057765;28;20205;-70
2022/08/13 11:56:22;;;;;;;9.38;8.48;;;;;;;20.60;77.21;94583.06;5057083;28;20201;-69
2022/08/13 11:58:51;;;;;;;8.90;8.10;;;;;;;20.56;76.31;94585.16;5057243;28;20206;-69
2022/08/13 12:01:19;;;;;;;9.23;8.32;;;;;;;20.51;76.06;94576.44;5057469;28;20205;-70
2022/08/13 12:03:48;;;;;;;9.38;8.57;;;;;;;20.49;75.99;94574.03;5057711;28;20593;-69
2022/08/13 12:06:16;;;;;;;9.55;8.75;;;;;;;20.47;76.87;94581.28;5057440;28;20194;-69
2022/08/13 12:08:45;;;;;;;8.73;8.02;;;;;;;20.43;78.58;94581.34;5057089;28;20201;-69